Portada
METAR-TAF:

METAR-TAF

Aeropuertos :

Aeropuerto de Oujda Angads

Oujda, Marruecos

latitud: 34-47N, longitud: 001-56W, altitud: 468 m

Observación

El informe se hizo hace 16 minutos, a las 01:30 UTC
Viento 7 kt del noroeste, variando entre oeste y norte
Temperatura 12°C
Humedad 94%
Presión 1019 hPa
Visibilidad: 6000 m
Cielo cubierto a una altura de 500 ft

METAR: GMFO 020130Z 31007KT 280V360 6000 OVC005 12/11 Q1019 NOSIG

Hora: 02:46 (01:46 UTC)

Pronóstico

El informe se hizo hace 2 horas y 46 minutos, a las 23:00 UTC
Pronóstico válido del 02 a las 00 UTC al 03 a las 06 UTC
Viento 10 kt del norte-noroeste
Visibilidad: 6000 m
Cielo nuboso a una altura de 600 ft
Evolucionando progresivamente
del 02 a las 05 UTC al 02 a las 09 UTC
Visibilidad: 3000 m
neblina

TAF: GMFO 012300Z 0200/0306 33010KT 6000 BKN006 BECMG 0205/0209 3000 BR

Observaciones y pronósticos meteorológicos de más de 4000 aeropuertos (mensajes METAR y TAF).

Los puntos amarillos y rojos representan las estaciones disponibles.

Ponga el ratón en el punto deseado para ver el nombre de la estación.

Haga clic para ver las observaciones y los pronósticos meteorológicos.

Para cambiar el mapa : haga clic en los botones verdes con una cruz de color negro para hacer un zoom, en el botón verde con un guión para alejar o en las flechas verdes para mapas adyacentes.


METAR-TAF: